Time;durP1;ratioP1;P1;durP2;ratioP2;P2;SDS_P1;SDS_P2;PMS_P1;PMS_P2;Temp;Humidity;BMP_temperature;BMP_pressure;BME280_temperature;BME280_humidity;BME280_pressure;Samples;Min_cycle;Max_cycle;Signal;HPM_P1;HPM_P2
2023/08/29 00:00:35;;;;;;;4.30;3.53;;;;;;;;;;5072323;28;20188;-85
2023/08/29 00:03:03;;;;;;;4.03;3.50;;;;;;;;;;5072377;28;20235;-85
2023/08/29 00:05:29;;;;;;;4.27;3.40;;;;;;;;;;5072324;28;20683;-83
2023/08/29 00:07:56;;;;;;;4.07;3.40;;;;;;;;;;5072270;28;20180;-85
2023/08/29 00:10:22;;;;;;;3.70;3.03;;;;;;;;;;5067670;28;20263;-85
2023/08/29 00:12:48;;;;;;;5.03;3.30;;;;;;;;;;5069026;28;20196;-86
2023/08/29 00:15:14;;;;;;;3.40;3.10;;;;;;;;;;5070460;28;20202;-85
2023/08/29 00:17:40;;;;;;;3.23;2.93;;;;;;;;;;5073044;28;20628;-84
2023/08/29 00:20:06;;;;;;;3.47;3.17;;;;;;;;;;5071642;28;20207;-84
2023/08/29 00:22:32;;;;;;;4.77;3.50;;;;;;;;;;5056069;28;20267;-84
2023/08/29 00:24:58;;;;;;;3.63;3.10;;;;;;;;;;5066233;28;20299;-83
2023/08/29 00:27:24;;;;;;;3.07;2.77;;;;;;;;;;5073915;28;20201;-82
2023/08/29 00:29:50;;;;;;;4.17;2.90;;;;;;;;;;5074007;28;20172;-83
2023/08/29 00:32:16;;;;;;;4.37;3.37;;;;;;;;;;5075231;28;20280;-83
2023/08/29 00:34:42;;;;;;;3.50;3.07;;;;;;;;;;5072337;28;20613;-83
2023/08/29 00:37:08;;;;;;;3.23;2.93;;;;;;;;;;5073149;28;20189;-83
2023/08/29 00:39:35;;;;;;;3.10;2.80;;;;;;;;;;5074357;28;20195;-81
2023/08/29 00:42:01;;;;;;;5.60;2.70;;;;;;;;;;5073618;28;20176;-83
2023/08/29 00:44:27;;;;;;;3.20;2.80;;;;;;;;;;5074475;28;20204;-83
2023/08/29 00:46:54;;;;;;;3.23;2.97;;;;;;;;;;5073824;28;20180;-83
2023/08/29 00:49:22;;;;;;;3.23;2.90;;;;;;;;;;5074571;28;20189;-83
2023/08/29 00:51:48;;;;;;;4.03;3.37;;;;;;;;;;5069259;28;20169;-83
2023/08/29 00:54:15;;;;;;;3.03;2.73;;;;;;;;;;5061489;28;20185;-83
2023/08/29 00:56:41;;;;;;;3.17;2.87;;;;;;;;;;5073484;28;20275;-84
2023/08/29 00:59:07;;;;;;;4.43;2.93;;;;;;;;;;5072665;28;20226;-83
2023/08/29 01:01:33;;;;;;;3.20;2.90;;;;;;;;;;5062739;28;20625;-84
2023/08/29 01:03:59;;;;;;;2.70;2.47;;;;;;;;;;5073271;28;20177;-84
2023/08/29 01:06:26;;;;;;;4.80;3.00;;;;;;;;;;5070015;28;20286;-82
2023/08/29 01:08:52;;;;;;;3.37;2.70;;;;;;;;;;5067893;28;20183;-82
2023/08/29 01:11:30;;;;;;;3.00;2.50;;;;;;;;;;5070753;28;20190;-82
2023/08/29 01:14:02;;;;;;;4.77;2.73;;;;;;;;;;5051397;28;20180;-81
2023/08/29 01:16:33;;;;;;;3.67;2.90;;;;;;;;;;5070770;28;20180;-81
2023/08/29 01:19:00;;;;;;;2.93;2.70;;;;;;;;;;5073549;28;20241;-81
2023/08/29 01:21:36;;;;;;;2.30;2.10;;;;;;;;;;5074377;28;20269;-81
2023/08/29 01:24:11;;;;;;;3.33;2.50;;;;;;;;;;5074180;28;20266;-81
2023/08/29 01:26:37;;;;;;;2.40;2.20;;;;;;;;;;5073446;28;20185;-81
2023/08/29 01:29:04;;;;;;;2.57;2.37;;;;;;;;;;5070071;28;20207;-81
2023/08/29 01:31:30;;;;;;;3.07;2.77;;;;;;;;;;5059343;28;20186;-83
2023/08/29 01:34:00;;;;;;;4.70;2.40;;;;;;;;;;5040335;28;20176;-80
2023/08/29 01:36:27;;;;;;;2.50;2.20;;;;;;;;;;5066219;28;20534;-81
2023/08/29 01:38:53;;;;;;;2.47;2.00;;;;;;;;;;5072761;28;20526;-81
2023/08/29 01:41:19;;;;;;;2.80;2.60;;;;;;;;;;5072112;28;20574;-81
2023/08/29 01:43:46;;;;;;;2.70;2.50;;;;;;;;;;5054964;28;20193;-82
2023/08/29 01:46:12;;;;;;;2.80;2.60;;;;;;;;;;5039865;28;20243;-81
2023/08/29 01:48:39;;;;;;;2.90;2.60;;;;;;;;;;5070260;28;20191;-79
2023/08/29 01:51:05;;;;;;;2.27;2.07;;;;;;;;;;5069328;28;20200;-81
2023/08/29 01:53:31;;;;;;;2.67;2.47;;;;;;;;;;5073536;28;20172;-82
2023/08/29 01:55:58;;;;;;;2.67;2.47;;;;;;;;;;5053316;28;20169;-81
2023/08/29 01:58:25;;;;;;;3.77;2.83;;;;;;;;;;5066233;28;20290;-81
2023/08/29 02:00:51;;;;;;;4.00;2.60;;;;;;;;;;5070165;28;20195;-82
2023/08/29 02:03:17;;;;;;;2.83;2.57;;;;;;;;;;5071591;28;20212;-81
2023/08/29 02:05:44;;;;;;;2.63;2.43;;;;;;;;;;5059232;28;20220;-83
2023/08/29 02:08:10;;;;;;;3.17;2.13;;;;;;;;;;5049984;28;20231;-81
2023/08/29 02:10:36;;;;;;;2.50;2.30;;;;;;;;;;5069210;28;20181;-82
2023/08/29 02:13:02;;;;;;;2.60;2.40;;;;;;;;;;5068956;28;20640;-80
2023/08/29 02:15:28;;;;;;;2.53;2.30;;;;;;;;;;5063660;28;20596;-81
2023/08/29 02:17:54;;;;;;;2.60;2.40;;;;;;;;;;5060187;28;20176;-84
2023/08/29 02:20:20;;;;;;;2.63;2.43;;;;;;;;;;5066982;28;20183;-81
2023/08/29 02:22:46;;;;;;;2.60;2.40;;;;;;;;;;5050144;28;20185;-81
2023/08/29 02:25:12;;;;;;;3.13;2.47;;;;;;;;;;5070722;28;20200;-80
2023/08/29 02:27:38;;;;;;;3.03;2.60;;;;;;;;;;5071873;28;20207;-81
2023/08/29 02:30:05;;;;;;;2.40;2.20;;;;;;;;;;5072333;28;20180;-81
2023/08/29 02:32:34;;;;;;;2.40;2.23;;;;;;;;;;5053496;28;20188;-81
2023/08/29 02:35:00;;;;;;;2.97;2.67;;;;;;;;;;5074345;28;20184;-82
2023/08/29 02:37:26;;;;;;;4.10;2.63;;;;;;;;;;5058572;28;20242;-80
2023/08/29 02:39:52;;;;;;;2.43;2.23;;;;;;;;;;5076496;28;20590;-82
2023/08/29 02:42:18;;;;;;;3.90;2.50;;;;;;;;;;5076167;28;20483;-82
2023/08/29 02:44:44;;;;;;;2.53;2.33;;;;;;;;;;5063073;28;20258;-82
2023/08/29 02:47:10;;;;;;;2.47;2.27;;;;;;;;;;5075003;28;20507;-85
2023/08/29 02:49:36;;;;;;;2.23;2.07;;;;;;;;;;5068371;28;20259;-86
2023/08/29 02:52:02;;;;;;;2.77;2.57;;;;;;;;;;5062381;28;20177;-84
2023/08/29 02:54:28;;;;;;;5.70;2.30;;;;;;;;;;5053727;28;20169;-86
2023/08/29 02:56:54;;;;;;;2.17;2.00;;;;;;;;;;5064393;28;20176;-85
2023/08/29 02:59:20;;;;;;;2.40;2.20;;;;;;;;;;5074182;28;20181;-85
2023/08/29 03:01:46;;;;;;;2.73;2.30;;;;;;;;;;5073300;28;20263;-85
2023/08/29 03:04:12;;;;;;;2.70;2.50;;;;;;;;;;5052550;28;20188;-84
2023/08/29 03:06:38;;;;;;;3.67;2.40;;;;;;;;;;5063738;28;20231;-85
2023/08/29 03:09:06;;;;;;;2.73;2.53;;;;;;;;;;5065584;28;20173;-85
2023/08/29 03:11:32;;;;;;;2.77;2.53;;;;;;;;;;5064393;28;20199;-84
2023/08/29 03:13:58;;;;;;;2.67;2.47;;;;;;;;;;5071007;28;20200;-85
2023/08/29 03:16:24;;;;;;;2.73;2.53;;;;;;;;;;5068117;28;20214;-85
2023/08/29 03:18:50;;;;;;;2.70;2.50;;;;;;;;;;5056963;28;20165;-87
2023/08/29 03:21:16;;;;;;;2.60;2.40;;;;;;;;;;5038460;28;20265;-85
2023/08/29 03:23:43;;;;;;;3.57;2.60;;;;;;;;;;5075430;28;20185;-85
2023/08/29 03:26:09;;;;;;;2.60;2.40;;;;;;;;;;5071960;28;20667;-83
2023/08/29 03:28:37;;;;;;;2.60;2.40;;;;;;;;;;5068864;28;20668;-81
2023/08/29 03:31:10;;;;;;;2.77;2.47;;;;;;;;;;5058674;28;20259;-81
2023/08/29 03:33:37;;;;;;;3.23;2.43;;;;;;;;;;5063746;28;20625;-81
2023/08/29 03:36:03;;;;;;;2.90;2.60;;;;;;;;;;5064789;28;20169;-82
2023/08/29 03:38:29;;;;;;;2.73;2.50;;;;;;;;;;5056061;28;20644;-82
2023/08/29 03:40:59;;;;;;;2.43;2.23;;;;;;;;;;5070572;28;21020;-82
2023/08/29 03:43:28;;;;;;;2.57;2.37;;;;;;;;;;5066931;28;20169;-80
2023/08/29 03:45:55;;;;;;;4.43;2.60;;;;;;;;;;5049495;28;20197;-81
2023/08/29 03:48:21;;;;;;;2.50;2.30;;;;;;;;;;5035979;28;20189;-82
2023/08/29 03:50:49;;;;;;;2.70;2.50;;;;;;;;;;5070353;28;20169;-81
2023/08/29 03:53:15;;;;;;;2.70;2.50;;;;;;;;;;5071530;28;20173;-81
2023/08/29 03:55:41;;;;;;;2.67;2.33;;;;;;;;;;5071655;28;20589;-83
2023/08/29 03:58:07;;;;;;;2.57;2.10;;;;;;;;;;5072119;28;20188;-83
2023/08/29 04:00:34;;;;;;;2.50;2.30;;;;;;;;;;5068899;28;20185;-83
2023/08/29 04:03:00;;;;;;;2.40;2.23;;;;;;;;;;5065847;28;20200;-83
2023/08/29 04:05:26;;;;;;;2.77;2.57;;;;;;;;;;5053485;28;20319;-82
2023/08/29 04:07:52;;;;;;;2.40;2.20;;;;;;;;;;5053170;28;20178;-84
2023/08/29 04:10:19;;;;;;;2.40;2.20;;;;;;;;;;5070658;28;20200;-83
2023/08/29 04:12:45;;;;;;;2.40;2.17;;;;;;;;;;5065669;28;20644;-83
2023/08/29 04:15:12;;;;;;;2.70;2.43;;;;;;;;;;5066205;28;20196;-83
2023/08/29 04:17:38;;;;;;;2.37;2.17;;;;;;;;;;5068330;28;20626;-83
2023/08/29 04:20:08;;;;;;;2.30;2.10;;;;;;;;;;5048803;28;20211;-84
2023/08/29 04:22:35;;;;;;;2.73;2.43;;;;;;;;;;5052805;28;20219;-83
2023/08/29 04:25:01;;;;;;;2.50;2.30;;;;;;;;;;5063551;28;20566;-83
2023/08/29 04:27:27;;;;;;;2.23;2.13;;;;;;;;;;5068752;28;20620;-84
2023/08/29 04:29:53;;;;;;;2.87;2.67;;;;;;;;;;5071063;28;20591;-83
2023/08/29 04:32:19;;;;;;;3.23;3.03;;;;;;;;;;5070400;28;20176;-85
2023/08/29 04:34:45;;;;;;;2.50;2.30;;;;;;;;;;5060641;28;20230;-83
2023/08/29 04:37:11;;;;;;;2.83;2.63;;;;;;;;;;5058758;28;20698;-82
2023/08/29 04:39:37;;;;;;;2.53;2.27;;;;;;;;;;5066990;28;20184;-82
2023/08/29 04:42:03;;;;;;;2.30;2.20;;;;;;;;;;5049704;28;20176;-82
2023/08/29 04:44:30;;;;;;;2.77;2.40;;;;;;;;;;5068858;28;20272;-83
2023/08/29 04:46:56;;;;;;;2.47;2.33;;;;;;;;;;5050790;28;20173;-82
2023/08/29 04:49:22;;;;;;;2.17;2.03;;;;;;;;;;5061440;28;20187;-83
2023/08/29 04:51:48;;;;;;;2.70;2.50;;;;;;;;;;5067009;28;20203;-82
2023/08/29 04:54:14;;;;;;;3.07;2.50;;;;;;;;;;5061865;28;20180;-82
2023/08/29 04:56:40;;;;;;;3.13;2.87;;;;;;;;;;5069263;28;20475;-81
2023/08/29 04:59:06;;;;;;;2.93;2.70;;;;;;;;;;5068478;28;20221;-83
2023/08/29 05:01:32;;;;;;;3.17;2.90;;;;;;;;;;5067164;28;20216;-82
2023/08/29 05:03:59;;;;;;;3.93;3.10;;;;;;;;;;5068614;28;20184;-83
2023/08/29 05:06:25;;;;;;;2.50;2.30;;;;;;;;;;5067982;28;20329;-85
2023/08/29 05:08:51;;;;;;;3.23;2.73;;;;;;;;;;5065871;28;20642;-85
2023/08/29 05:11:18;;;;;;;2.50;2.30;;;;;;;;;;5070291;28;20172;-89
2023/08/29 05:13:44;;;;;;;4.50;2.67;;;;;;;;;;5073758;28;20514;-87
2023/08/29 05:16:10;;;;;;;2.53;2.33;;;;;;;;;;5072108;28;20196;-88
2023/08/29 05:18:36;;;;;;;2.50;2.30;;;;;;;;;;5073755;28;20238;-87
2023/08/29 05:21:03;;;;;;;3.03;2.73;;;;;;;;;;5066839;28;20188;-88
2023/08/29 05:23:29;;;;;;;3.07;2.83;;;;;;;;;;5065204;28;20539;-87
2023/08/29 05:25:55;;;;;;;2.70;2.50;;;;;;;;;;5073504;28;20192;-87
2023/08/29 05:28:22;;;;;;;2.57;2.37;;;;;;;;;;5073566;28;20196;-89
2023/08/29 05:30:48;;;;;;;3.50;2.30;;;;;;;;;;5054586;28;20207;-89
2023/08/29 05:33:14;;;;;;;2.10;2.00;;;;;;;;;;5074933;28;20176;-88
2023/08/29 05:35:40;;;;;;;2.43;2.23;;;;;;;;;;5072482;28;20182;-88
2023/08/29 05:38:06;;;;;;;3.50;2.90;;;;;;;;;;5052145;28;20267;-89
2023/08/29 05:40:33;;;;;;;2.90;2.60;;;;;;;;;;5077343;28;20597;-88
2023/08/29 05:42:59;;;;;;;2.63;2.43;;;;;;;;;;5074992;28;20168;-87
2023/08/29 05:45:26;;;;;;;4.13;2.60;;;;;;;;;;5073867;28;20200;-88
2023/08/29 05:47:52;;;;;;;2.60;2.40;;;;;;;;;;5074638;28;20256;-89
2023/08/29 05:50:18;;;;;;;3.03;2.43;;;;;;;;;;5073939;28;20203;-89
2023/08/29 05:52:45;;;;;;;2.17;2.07;;;;;;;;;;5074582;28;20205;-86
2023/08/29 05:55:11;;;;;;;2.53;2.33;;;;;;;;;;5073050;28;20178;-89
2023/08/29 05:57:37;;;;;;;4.23;2.40;;;;;;;;;;5071631;28;20187;-88
2023/08/29 06:00:07;;;;;;;2.60;2.40;;;;;;;;;;5068616;28;20204;-86
2023/08/29 06:02:33;;;;;;;2.90;2.30;;;;;;;;;;5056470;28;20248;-89
2023/08/29 06:04:59;;;;;;;2.90;2.57;;;;;;;;;;5077185;28;20244;-88
2023/08/29 06:07:26;;;;;;;3.33;3.03;;;;;;;;;;5075441;28;20216;-88
2023/08/29 06:09:52;;;;;;;3.27;2.23;;;;;;;;;;5053147;28;20246;-87
2023/08/29 06:12:18;;;;;;;2.50;2.30;;;;;;;;;;5042728;28;20255;-88
2023/08/29 06:14:44;;;;;;;3.00;2.70;;;;;;;;;;5059158;28;20254;-88
2023/08/29 06:17:10;;;;;;;2.70;2.50;;;;;;;;;;5068994;28;20293;-83
2023/08/29 06:19:36;;;;;;;3.00;2.57;;;;;;;;;;5059908;28;20248;-82
2023/08/29 06:22:02;;;;;;;2.80;2.53;;;;;;;;;;5060234;28;20184;-83
2023/08/29 06:24:28;;;;;;;3.90;2.70;;;;;;;;;;5078203;28;20597;-82
2023/08/29 06:26:54;;;;;;;2.87;2.67;;;;;;;;;;5078553;28;20176;-83
2023/08/29 06:29:20;;;;;;;3.27;2.70;;;;;;;;;;5078876;28;20193;-84
2023/08/29 06:31:46;;;;;;;2.80;2.60;;;;;;;;;;5076527;28;20075;-83
2023/08/29 06:34:12;;;;;;;2.90;2.60;;;;;;;;;;5078011;28;20585;-83
2023/08/29 06:36:39;;;;;;;3.10;2.87;;;;;;;;;;5078015;28;20592;-82
2023/08/29 06:39:05;;;;;;;2.90;2.50;;;;;;;;;;5077717;28;20261;-83
2023/08/29 06:41:31;;;;;;;2.83;2.60;;;;;;;;;;5075018;28;20188;-83
2023/08/29 06:43:57;;;;;;;2.77;2.47;;;;;;;;;;5076466;28;20388;-85
2023/08/29 06:46:23;;;;;;;2.33;2.20;;;;;;;;;;5067039;28;20208;-83
2023/08/29 06:48:49;;;;;;;3.13;2.90;;;;;;;;;;5063500;28;20177;-81
2023/08/29 06:51:15;;;;;;;3.00;2.70;;;;;;;;;;5046258;28;20234;-83
2023/08/29 06:53:41;;;;;;;2.83;2.53;;;;;;;;;;5077851;28;20175;-83
2023/08/29 06:56:07;;;;;;;2.90;2.70;;;;;;;;;;5076167;28;20173;-87
2023/08/29 06:58:33;;;;;;;2.20;2.00;;;;;;;;;;5076095;28;20181;-87
2023/08/29 07:01:00;;;;;;;2.73;2.53;;;;;;;;;;5075165;28;20181;-86
2023/08/29 07:03:26;;;;;;;3.20;2.50;;;;;;;;;;5055780;28;20570;-86
2023/08/29 07:05:53;;;;;;;3.63;2.97;;;;;;;;;;5066103;28;20326;-88
2023/08/29 07:08:19;;;;;;;2.73;2.50;;;;;;;;;;5038918;28;20536;-88
2023/08/29 07:10:45;;;;;;;2.70;2.27;;;;;;;;;;5075859;28;20160;-84
2023/08/29 07:13:14;;;;;;;3.20;2.63;;;;;;;;;;5079836;28;20187;-88
2023/08/29 07:15:40;;;;;;;3.13;2.83;;;;;;;;;;5074712;28;20180;-87
2023/08/29 07:18:06;;;;;;;3.07;2.77;;;;;;;;;;5066832;28;20181;-87
2023/08/29 07:20:33;;;;;;;4.17;2.67;;;;;;;;;;5078705;28;20263;-85
2023/08/29 07:22:59;;;;;;;2.50;2.30;;;;;;;;;;5075403;28;20192;-85
2023/08/29 07:25:42;;;;;;;2.70;2.50;;;;;;;;;;5093278;28;20586;-85
2023/08/29 07:28:09;;;;;;;4.20;2.60;;;;;;;;;;5041346;28;20258;-85
2023/08/29 07:30:36;;;;;;;2.70;2.50;;;;;;;;;;5056661;28;20285;-84
2023/08/29 07:33:03;;;;;;;2.63;2.43;;;;;;;;;;5058847;28;20172;-83
2023/08/29 07:35:29;;;;;;;4.73;2.47;;;;;;;;;;5040377;28;20498;-85
2023/08/29 07:37:55;;;;;;;3.10;2.50;;;;;;;;;;5077445;28;20207;-85
2023/08/29 07:40:22;;;;;;;2.80;2.60;;;;;;;;;;5055835;28;20534;-82
2023/08/29 07:42:48;;;;;;;3.17;2.87;;;;;;;;;;5072596;28;20191;-78
2023/08/29 07:45:14;;;;;;;4.90;4.40;;;;;;;;;;5065496;28;20204;-79
2023/08/29 07:47:42;;;;;;;5.23;3.57;;;;;;;;;;5069323;28;20173;-80
2023/08/29 07:50:08;;;;;;;4.00;3.60;;;;;;;;;;5071236;28;20172;-83
2023/08/29 07:52:35;;;;;;;6.07;4.37;;;;;;;;;;5077688;28;20165;-81
2023/08/29 07:55:01;;;;;;;8.40;4.67;;;;;;;;;;5077850;28;20721;-80
2023/08/29 07:57:27;;;;;;;4.57;4.17;;;;;;;;;;5056118;28;20265;-86
2023/08/29 07:59:53;;;;;;;6.30;5.07;;;;;;;;;;5059158;28;20679;-86
2023/08/29 08:02:20;;;;;;;7.10;6.00;;;;;;;;;;5076402;28;20204;-87
2023/08/29 08:04:46;;;;;;;7.70;5.97;;;;;;;;;;5077573;28;20229;-87
2023/08/29 08:07:12;;;;;;;6.33;5.73;;;;;;;;;;5061280;28;20211;-87
2023/08/29 08:09:38;;;;;;;8.27;5.50;;;;;;;;;;5078499;28;20169;-88
2023/08/29 08:12:05;;;;;;;8.00;5.73;;;;;;;;;;5060119;28;20616;-84
2023/08/29 08:14:31;;;;;;;7.97;5.90;;;;;;;;;;5073001;28;20196;-86
2023/08/29 08:16:57;;;;;;;7.57;6.20;;;;;;;;;;5076575;28;20261;-86
2023/08/29 08:19:23;;;;;;;9.33;6.63;;;;;;;;;;5077480;28;20165;-84
2023/08/29 08:21:49;;;;;;;10.27;6.67;;;;;;;;;;5070130;28;20179;-85
2023/08/29 08:24:15;;;;;;;10.10;7.60;;;;;;;;;;5094171;28;20186;-85
2023/08/29 08:26:42;;;;;;;9.40;7.10;;;;;;;;;;5099573;28;20234;-85
2023/08/29 08:29:08;;;;;;;12.10;6.97;;;;;;;;;;5072798;28;20197;-87
2023/08/29 08:31:34;;;;;;;10.07;7.43;;;;;;;;;;5077226;28;20192;-87
2023/08/29 08:34:00;;;;;;;9.27;7.70;;;;;;;;;;5077825;28;20168;-87
2023/08/29 08:36:28;;;;;;;11.47;7.40;;;;;;;;;;5075382;28;20192;-86
2023/08/29 08:38:54;;;;;;;12.40;8.03;;;;;;;;;;5078243;28;20176;-85
2023/08/29 08:41:20;;;;;;;14.17;8.80;;;;;;;;;;5059562;28;20161;-84
2023/08/29 08:43:46;;;;;;;12.60;9.10;;;;;;;;;;5076226;28;20211;-87
2023/08/29 08:46:14;;;;;;;13.20;9.80;;;;;;;;;;5076172;28;20200;-88
2023/08/29 08:48:41;;;;;;;11.43;8.20;;;;;;;;;;5076348;28;20153;-88
2023/08/29 08:51:07;;;;;;;13.43;8.83;;;;;;;;;;5077500;28;20224;-89
2023/08/29 08:53:34;;;;;;;19.73;11.07;;;;;;;;;;5071495;28;20176;-88
2023/08/29 08:56:00;;;;;;;13.83;8.67;;;;;;;;;;5068451;28;20176;-88
2023/08/29 08:58:27;;;;;;;13.37;6.87;;;;;;;;;;5071751;28;20173;-91
2023/08/29 09:00:53;;;;;;;11.23;6.77;;;;;;;;;;5076528;28;20202;-89
2023/08/29 09:03:20;;;;;;;10.80;6.57;;;;;;;;;;5076403;28;20185;-91
2023/08/29 09:05:46;;;;;;;9.13;6.67;;;;;;;;;;5073056;28;20224;-83
2023/08/29 09:08:12;;;;;;;9.73;6.43;;;;;;;;;;5070405;28;20177;-88
2023/08/29 09:10:39;;;;;;;7.67;5.07;;;;;;;;;;5073741;28;20208;-88
2023/08/29 09:13:06;;;;;;;9.53;5.27;;;;;;;;;;5075142;28;20187;-90
2023/08/29 09:15:34;;;;;;;7.47;5.00;;;;;;;;;;5059265;28;20171;-88
2023/08/29 09:18:00;;;;;;;7.63;4.63;;;;;;;;;;5075575;28;20263;-89
2023/08/29 09:20:30;;;;;;;7.03;4.10;;;;;;;;;;5074062;28;20190;-86
2023/08/29 09:22:56;;;;;;;4.00;3.13;;;;;;;;;;5064447;28;20504;-86
2023/08/29 09:25:24;;;;;;;3.30;3.00;;;;;;;;;;5056599;28;20202;-91
2023/08/29 09:27:50;;;;;;;5.63;3.13;;;;;;;;;;5058402;28;20191;-88
2023/08/29 09:30:17;;;;;;;4.73;3.13;;;;;;;;;;5065477;28;20178;-88
2023/08/29 09:32:43;;;;;;;2.80;2.40;;;;;;;;;;5072972;28;20245;-90
2023/08/29 09:35:24;;;;;;;3.97;2.73;;;;;;;;;;5065463;28;20203;-85
2023/08/29 09:37:52;;;;;;;2.80;2.33;;;;;;;;;;5064524;28;20185;-85
2023/08/29 09:40:18;;;;;;;3.70;2.90;;;;;;;;;;5070699;28;20170;-87
2023/08/29 09:42:54;;;;;;;3.43;2.60;;;;;;;;;;5066090;28;20190;-88
2023/08/29 09:45:20;;;;;;;3.47;2.67;;;;;;;;;;5072107;28;20208;-89
2023/08/29 09:47:46;;;;;;;3.23;2.33;;;;;;;;;;5070483;28;20262;-87
2023/08/29 09:50:12;;;;;;;2.87;2.30;;;;;;;;;;5072489;28;20206;-88
2023/08/29 09:52:39;;;;;;;3.30;2.20;;;;;;;;;;5070185;28;20185;-90
2023/08/29 09:55:08;;;;;;;3.27;2.63;;;;;;;;;;5073862;28;20193;-88
2023/08/29 09:57:35;;;;;;;3.63;3.00;;;;;;;;;;5077034;28;20184;-87
2023/08/29 10:00:04;;;;;;;3.73;2.50;;;;;;;;;;5074910;28;20238;-88
2023/08/29 10:02:30;;;;;;;3.07;2.67;;;;;;;;;;5070377;28;20195;-86
2023/08/29 10:05:03;;;;;;;2.93;2.30;;;;;;;;;;5058938;28;20229;-88
2023/08/29 10:07:33;;;;;;;3.50;2.70;;;;;;;;;;5076114;28;20197;-88
2023/08/29 10:10:00;;;;;;;5.20;3.27;;;;;;;;;;5068927;28;20175;-88
2023/08/29 10:12:27;;;;;;;3.97;2.60;;;;;;;;;;5049425;28;20404;-87
2023/08/29 10:14:54;;;;;;;2.77;2.30;;;;;;;;;;5069981;28;20188;-85
2023/08/29 10:17:20;;;;;;;2.60;2.40;;;;;;;;;;5073304;28;20186;-87
2023/08/29 10:19:47;;;;;;;4.17;2.80;;;;;;;;;;5066946;28;20309;-88
2023/08/29 10:22:13;;;;;;;2.40;2.20;;;;;;;;;;5057851;28;20241;-86
2023/08/29 10:24:42;;;;;;;2.80;2.40;;;;;;;;;;5077977;28;20198;-86
2023/08/29 10:27:08;;;;;;;2.43;2.23;;;;;;;;;;5076608;28;20184;-86
2023/08/29 10:29:34;;;;;;;4.40;2.60;;;;;;;;;;5059379;28;20212;-87
2023/08/29 10:32:02;;;;;;;3.57;2.73;;;;;;;;;;5075609;28;20232;-86
2023/08/29 10:34:29;;;;;;;4.60;2.90;;;;;;;;;;5081091;28;20176;-87
2023/08/29 10:36:56;;;;;;;3.60;2.50;;;;;;;;;;5048981;28;20201;-87
2023/08/29 10:39:24;;;;;;;2.30;2.10;;;;;;;;;;5069922;28;20182;-85
2023/08/29 10:41:53;;;;;;;3.57;2.23;;;;;;;;;;5067468;28;20177;-88
2023/08/29 10:44:40;;;;;;;2.87;2.30;;;;;;;;;;5066908;28;20196;-87
2023/08/29 10:47:19;;;;;;;2.70;2.20;;;;;;;;;;5061415;28;20185;-87
2023/08/29 10:49:45;;;;;;;2.50;2.30;;;;;;;;;;5068537;28;20180;-88
2023/08/29 10:52:13;;;;;;;3.23;2.37;;;;;;;;;;5071185;28;20185;-88
2023/08/29 10:54:39;;;;;;;4.87;2.13;;;;;;;;;;5072228;28;20740;-88
2023/08/29 10:57:26;;;;;;;3.77;2.30;;;;;;;;;;5075963;28;20188;-88
2023/08/29 10:59:52;;;;;;;3.00;2.20;;;;;;;;;;5077361;28;20611;-87
2023/08/29 11:02:29;;;;;;;2.07;1.90;;;;;;;;;;5077153;28;20199;-87
2023/08/29 11:05:04;;;;;;;2.22;2.03;;;;;;;;;;5070387;28;20888;-87
2023/08/29 11:07:30;;;;;;;2.47;2.07;;;;;;;;;;5077585;28;20173;-87
2023/08/29 11:10:12;;;;;;;2.20;2.10;;;;;;;;;;5074024;28;20663;-86
2023/08/29 11:12:58;;;;;;;3.37;2.33;;;;;;;;;;5068943;28;20249;-87
2023/08/29 11:15:44;;;;;;;2.70;2.00;;;;;;;;;;5060394;28;20184;-88
2023/08/29 11:18:22;;;;;;;2.73;1.90;;;;;;;;;;5055220;28;20491;-86
2023/08/29 11:20:48;;;;;;;2.20;2.00;;;;;;;;;;5082917;28;20176;-88
2023/08/29 11:23:14;;;;;;;2.17;1.97;;;;;;;;;;5065129;28;20169;-87
2023/08/29 11:25:40;;;;;;;1.93;1.73;;;;;;;;;;5063577;28;20193;-87
2023/08/29 11:28:06;;;;;;;1.93;1.80;;;;;;;;;;5078437;28;20203;-87
2023/08/29 11:30:33;;;;;;;3.53;2.00;;;;;;;;;;5063151;28;20736;-86
2023/08/29 11:33:03;;;;;;;4.67;1.97;;;;;;;;;;5061713;28;20171;-87
2023/08/29 11:35:29;;;;;;;3.10;1.63;;;;;;;;;;5070022;28;20194;-86
2023/08/29 11:37:55;;;;;;;2.23;2.03;;;;;;;;;;5076111;28;20337;-87
2023/08/29 11:40:21;;;;;;;2.67;1.73;;;;;;;;;;5080995;28;20175;-86
2023/08/29 11:42:48;;;;;;;15.47;3.20;;;;;;;;;;5073737;28;20179;-87
2023/08/29 11:45:17;;;;;;;5.00;2.80;;;;;;;;;;5073962;28;20209;-85
2023/08/29 11:47:43;;;;;;;3.20;2.50;;;;;;;;;;5078750;28;20238;-87
2023/08/29 11:50:11;;;;;;;3.33;2.37;;;;;;;;;;5077553;28;20237;-85
2023/08/29 11:52:37;;;;;;;3.03;2.20;;;;;;;;;;5086279;28;20189;-85
2023/08/29 11:55:04;;;;;;;2.70;2.20;;;;;;;;;;5077659;28;20521;-84
2023/08/29 11:57:31;;;;;;;3.70;2.70;;;;;;;;;;5082402;28;20203;-85
2023/08/29 11:59:57;;;;;;;2.90;2.23;;;;;;;;;;5062091;28;20179;-87
2023/08/29 12:02:23;;;;;;;3.60;3.27;;;;;;;;;;5061643;28;20197;-86
2023/08/29 12:04:56;;;;;;;5.10;3.47;;;;;;;;;;5079009;28;20191;-86
2023/08/29 12:07:22;;;;;;;5.50;4.40;;;;;;;;;;5077703;28;20182;-85
2023/08/29 12:09:49;;;;;;;6.80;4.33;;;;;;;;;;5079074;28;20183;-86
2023/08/29 12:12:32;;;;;;;4.30;3.33;;;;;;;;;;5079948;28;20210;-85
2023/08/29 12:14:59;;;;;;;3.17;2.43;;;;;;;;;;5061479;28;20488;-85
2023/08/29 12:17:38;;;;;;;2.80;2.50;;;;;;;;;;5068244;28;20325;-91
2023/08/29 12:20:04;;;;;;;2.13;1.93;;;;;;;;;;5074623;28;20170;-90
2023/08/29 12:22:31;;;;;;;2.70;2.10;;;;;;;;;;5072154;28;20189;-89
2023/08/29 12:24:59;;;;;;;2.40;2.20;;;;;;;;;;5076475;28;20206;-90
2023/08/29 12:27:25;;;;;;;2.03;1.87;;;;;;;;;;5079626;28;20183;-92
2023/08/29 12:29:51;;;;;;;2.57;2.00;;;;;;;;;;5072605;28;20215;-92
2023/08/29 12:32:18;;;;;;;1.70;1.60;;;;;;;;;;5078187;28;20177;-89
2023/08/29 12:34:44;;;;;;;2.50;2.00;;;;;;;;;;5073541;28;20716;-91
2023/08/29 12:37:11;;;;;;;2.10;1.90;;;;;;;;;;5072386;28;20184;-92
2023/08/29 12:39:37;;;;;;;4.83;2.20;;;;;;;;;;5079694;28;20258;-91
2023/08/29 12:42:04;;;;;;;3.30;1.70;;;;;;;;;;5078777;28;20225;-87
2023/08/29 12:44:30;;;;;;;2.53;1.70;;;;;;;;;;5079950;28;20215;-87
2023/08/29 12:46:56;;;;;;;2.17;2.00;;;;;;;;;;5080864;28;20202;-88
2023/08/29 12:49:23;;;;;;;2.47;1.80;;;;;;;;;;5071445;28;20176;-82
2023/08/29 12:51:50;;;;;;;2.37;2.17;;;;;;;;;;5060570;28;20682;-83
2023/08/29 12:54:16;;;;;;;3.53;2.50;;;;;;;;;;5061354;28;20197;-82
2023/08/29 12:56:43;;;;;;;5.67;3.00;;;;;;;;;;5070336;28;20621;-83
2023/08/29 12:59:10;;;;;;;5.27;2.60;;;;;;;;;;5074154;28;20221;-86
2023/08/29 13:01:36;;;;;;;2.50;2.30;;;;;;;;;;5068463;28;20277;-84
2023/08/29 13:04:03;;;;;;;2.60;2.30;;;;;;;;;;5071764;28;20646;-81
2023/08/29 13:06:29;;;;;;;3.30;2.23;;;;;;;;;;5067212;28;20232;-81
2023/08/29 13:08:55;;;;;;;2.33;2.13;;;;;;;;;;5061229;28;20252;-83
2023/08/29 13:11:22;;;;;;;4.03;2.20;;;;;;;;;;5066840;28;20179;-82
2023/08/29 13:13:48;;;;;;;3.00;2.30;;;;;;;;;;5068493;28;20178;-83
2023/08/29 13:16:15;;;;;;;2.07;1.87;;;;;;;;;;5070281;28;20660;-79
2023/08/29 13:18:42;;;;;;;3.40;3.10;;;;;;;;;;5070987;28;20194;-80
2023/08/29 13:21:09;;;;;;;2.67;2.47;;;;;;;;;;5077478;28;20178;-84
2023/08/29 13:23:35;;;;;;;2.43;2.23;;;;;;;;;;5053520;28;20313;-84
2023/08/29 13:26:01;;;;;;;2.43;2.20;;;;;;;;;;5070890;28;20216;-83
2023/08/29 13:28:27;;;;;;;2.10;2.00;;;;;;;;;;5069931;28;20198;-84
2023/08/29 13:30:53;;;;;;;2.50;2.30;;;;;;;;;;5075309;28;20174;-84
2023/08/29 13:33:20;;;;;;;2.13;1.93;;;;;;;;;;5059567;28;20527;-84
2023/08/29 13:35:46;;;;;;;2.40;1.80;;;;;;;;;;5067644;28;20181;-84
2023/08/29 13:38:12;;;;;;;3.53;3.13;;;;;;;;;;5075002;28;20571;-85
2023/08/29 13:40:38;;;;;;;3.13;2.83;;;;;;;;;;5063828;28;20165;-86
2023/08/29 13:43:04;;;;;;;3.17;2.83;;;;;;;;;;5052677;28;20196;-85
2023/08/29 13:45:30;;;;;;;2.70;2.50;;;;;;;;;;5075632;28;20531;-84
2023/08/29 13:47:56;;;;;;;2.67;2.47;;;;;;;;;;5073578;28;20251;-86
2023/08/29 13:50:23;;;;;;;3.00;2.73;;;;;;;;;;5069923;28;20185;-87
2023/08/29 13:52:49;;;;;;;2.80;2.60;;;;;;;;;;5075477;28;20177;-87
2023/08/29 13:55:15;;;;;;;2.50;2.30;;;;;;;;;;5075294;28;20256;-87
2023/08/29 13:57:41;;;;;;;3.50;2.80;;;;;;;;;;5075824;28;20536;-86
2023/08/29 14:00:07;;;;;;;2.77;2.57;;;;;;;;;;5069034;28;20772;-85
2023/08/29 14:02:33;;;;;;;2.57;2.37;;;;;;;;;;5061953;28;20191;-86
2023/08/29 14:05:00;;;;;;;2.73;2.50;;;;;;;;;;5065023;28;20229;-83
2023/08/29 14:07:26;;;;;;;3.10;2.67;;;;;;;;;;5067403;28;20171;-85
2023/08/29 14:09:52;;;;;;;3.63;3.13;;;;;;;;;;5069763;28;20178;-86
2023/08/29 14:12:18;;;;;;;2.60;2.40;;;;;;;;;;5069062;28;20575;-87
2023/08/29 14:14:44;;;;;;;3.90;2.93;;;;;;;;;;5070253;28;20169;-85
2023/08/29 14:17:10;;;;;;;3.60;2.73;;;;;;;;;;5066605;28;20185;-85
2023/08/29 14:19:36;;;;;;;4.43;2.80;;;;;;;;;;5069999;28;20230;-84
2023/08/29 14:22:02;;;;;;;3.50;2.73;;;;;;;;;;5051642;28;20589;-85
2023/08/29 14:24:28;;;;;;;2.57;2.30;;;;;;;;;;5066064;28;20204;-84
2023/08/29 14:26:54;;;;;;;2.67;2.47;;;;;;;;;;5069071;28;20231;-85
2023/08/29 14:29:20;;;;;;;4.40;3.00;;;;;;;;;;5070393;28;20660;-85
2023/08/29 14:31:46;;;;;;;2.60;2.20;;;;;;;;;;5071350;28;20246;-79
2023/08/29 14:34:12;;;;;;;3.17;2.70;;;;;;;;;;5074330;28;20181;-86
2023/08/29 14:36:39;;;;;;;2.03;1.90;;;;;;;;;;5078403;28;20192;-84
2023/08/29 14:39:05;;;;;;;2.23;2.03;;;;;;;;;;5068655;28;20177;-86
2023/08/29 14:41:31;;;;;;;2.30;1.80;;;;;;;;;;5077771;28;20185;-79